地図

経路データ

SID SEASON NUMBER BASIN SUBBASIN NAME ISO_TIME NATURE LAT LON WMO_WIND WMO_PRES WMO_AGENCY TRACK_TYPE DIST2LAND LANDFALL IFLAG USA_AGENCY USA_ATCF_ID USA_LAT USA_LON USA_RECORD USA_STATUS USA_WIND USA_PRES USA_SSHS USA_R34_NE USA_R34_SE USA_R34_SW USA_R34_NW USA_R50_NE USA_R50_SE USA_R50_SW USA_R50_NW USA_R64_NE USA_R64_SE USA_R64_SW USA_R64_NW USA_POCI USA_ROCI USA_RMW USA_EYE TOKYO_LAT TOKYO_LON TOKYO_GRADE TOKYO_WIND TOKYO_PRES TOKYO_R50_DIR TOKYO_R50_LONG TOKYO_R50_SHORT TOKYO_R30_DIR TOKYO_R30_LONG TOKYO_R30_SHORT TOKYO_LAND CMA_LAT CMA_LON CMA_CAT CMA_WIND CMA_PRES HKO_LAT HKO_LON HKO_CAT HKO_WIND HKO_PRES NEWDELHI_LAT NEWDELHI_LON NEWDELHI_GRADE NEWDELHI_WIND NEWDELHI_PRES NEWDELHI_CI NEWDELHI_DP NEWDELHI_POCI REUNION_LAT REUNION_LON REUNION_TYPE REUNION_WIND REUNION_PRES REUNION_TNUM REUNION_CI REUNION_RMW REUNION_R34_NE REUNION_R34_SE REUNION_R34_SW REUNION_R34_NW REUNION_R50_NE REUNION_R50_SE REUNION_R50_SW REUNION_R50_NW REUNION_R64_NE REUNION_R64_SE REUNION_R64_SW REUNION_R64_NW BOM_LAT BOM_LON BOM_TYPE BOM_WIND BOM_PRES BOM_TNUM BOM_CI BOM_RMW BOM_R34_NE BOM_R34_SE BOM_R34_SW BOM_R34_NW BOM_R50_NE BOM_R50_SE BOM_R50_SW BOM_R50_NW BOM_R64_NE BOM_R64_SE BOM_R64_SW BOM_R64_NW BOM_ROCI BOM_POCI BOM_EYE BOM_POS_METHOD BOM_PRES_METHOD NADI_LAT NADI_LON NADI_CAT NADI_WIND NADI_PRES WELLINGTON_LAT WELLINGTON_LON WELLINGTON_WIND WELLINGTON_PRES DS824_LAT DS824_LON DS824_STAGE DS824_WIND DS824_PRES TD9636_LAT TD9636_LON TD9636_STAGE TD9636_WIND TD9636_PRES TD9635_LAT TD9635_LON TD9635_WIND TD9635_PRES TD9635_ROCI NEUMANN_LAT NEUMANN_LON NEUMANN_CLASS NEUMANN_WIND NEUMANN_PRES MLC_LAT MLC_LON MLC_CLASS MLC_WIND MLC_PRES USA_GUST BOM_GUST BOM_GUST_PER REUNION_GUST REUNION_GUST_PER USA_SEAHGT USA_SEARAD_NE USA_SEARAD_SE USA_SEARAD_SW USA_SEARAD_NW STORM_SPEED STORM_DIR
1913195N11132 1913 29 WP MM NOT_NAMED 1913-07-13 22:00:00 NR 10.7000 132.300 main 689 649 __________O___ -1 10.7000 132.300 4 14 284
1913195N11132 1913 29 WP MM NOT_NAMED 1913-07-14 00:00:00 NR 10.8064 131.856 main 649 583 __________P___ -1 10.8064 131.856 4 13 284
1913195N11132 1913 29 WP MM NOT_NAMED 1913-07-14 03:00:00 NR 10.9630 131.199 main 583 524 __________P___ -1 10.9630 131.199 4 13 284
1913195N11132 1913 29 WP MM NOT_NAMED 1913-07-14 06:00:00 NR 11.1135 130.570 main 524 459 __________P___ -1 11.1135 130.570 4 12 284
1913195N11132 1913 29 WP MM NOT_NAMED 1913-07-14 09:00:00 NR 11.2552 129.983 main 459 437 __________P___ -1 11.2552 129.983 4 12 284
1913195N11132 1913 29 WP MM NOT_NAMED 1913-07-14 10:00:00 NR 11.3000 129.800 main 437 406 __________O___ -1 11.3000 129.800 4 11 284
1913195N11132 1913 29 WP MM NOT_NAMED 1913-07-14 12:00:00 NR 11.3860 129.455 main 406 353 __________P___ -1 11.3860 129.455 4 10 285
1913195N11132 1913 29 WP MM NOT_NAMED 1913-07-14 15:00:00 NR 11.5090 128.981 main 353 302 __________P___ -1 11.5090 128.981 4 9 285
1913195N11132 1913 29 WP MM NOT_NAMED 1913-07-14 18:00:00 NR 11.6303 128.546 main 302 266 __________P___ -1 11.6303 128.546 4 9 287
1913195N11132 1913 29 WP MM NOT_NAMED 1913-07-14 21:00:00 NR 11.7561 128.135 main 266 256 __________P___ -1 11.7561 128.135 4 8 288
1913195N11132 1913 29 WP MM NOT_NAMED 1913-07-14 22:00:00 NR 11.8000 128.000 main 256 230 __________O___ -1 11.8000 128.000 4 9 288
1913195N11132 1913 29 WP MM NOT_NAMED 1913-07-15 00:00:00 NR 11.8915 127.719 main 230 197 __________P___ -1 11.8915 127.719 4 9 289
1913195N11132 1913 29 WP MM NOT_NAMED 1913-07-15 03:00:00 NR 12.0351 127.311 main 197 152 __________P___ -1 12.0351 127.311 4 8 291
1913195N11132 1913 29 WP MM NOT_NAMED 1913-07-15 06:00:00 NR 12.1864 126.914 main 152 109 __________P___ -1 12.1864 126.914 4 8 292
1913195N11132 1913 29 WP MM NOT_NAMED 1913-07-15 09:00:00 NR 12.3453 126.527 main 109 100 __________P___ -1 12.3453 126.527 4 8 293
1913195N11132 1913 29 WP MM NOT_NAMED 1913-07-15 10:00:00 NR 12.4000 126.400 main 100 73 __________O___ -1 12.4000 126.400 4 8 292
1913195N11132 1913 29 WP MM NOT_NAMED 1913-07-15 12:00:00 NR 12.4978 126.134 main 73 54 __________P___ -1 12.4978 126.134 4 8 291
1913195N11132 1913 29 WP MM NOT_NAMED 1913-07-15 15:00:00 NR 12.6506 125.740 main 54 39 __________P___ -1 12.6506 125.740 4 8 293
1913195N11132 1913 29 WP MM NOT_NAMED 1913-07-15 18:00:00 NR 12.8217 125.363 main 39 35 __________P___ -1 12.8217 125.363 4 8 298
1913195N11132 1913 29 WP MM NOT_NAMED 1913-07-15 21:00:00 NR 13.0237 125.010 main 55 55 __________P___ -1 13.0237 125.010 4 8 302
1913195N11132 1913 29 WP MM NOT_NAMED 1913-07-15 22:00:00 NR 13.1000 124.900 main 67 54 __________O___ -1 13.1000 124.900 4 8 306
1913195N11132 1913 29 WP MM NOT_NAMED 1913-07-16 00:00:00 NR 13.2635 124.673 main 54 15 __________P___ -1 13.2635 124.673 4 8 310
1913195N11132 1913 29 WP MM NOT_NAMED 1913-07-16 03:00:00 NR 13.5403 124.357 main 15 0 __________P___ -1 13.5403 124.357 4 8 316
1913195N11132 1913 29 WP MM NOT_NAMED 1913-07-16 06:00:00 NR 13.8491 124.082 main 0 0 __________P___ -1 13.8491 124.082 4 8 323
1913195N11132 1913 29 WP MM NOT_NAMED 1913-07-16 09:00:00 NR 14.1838 123.860 main 31 35 __________P___ -1 14.1838 123.860 4 8 329
1913195N11132 1913 29 WP MM NOT_NAMED 1913-07-16 10:00:00 NR 14.3000 123.800 main 46 46 __________O___ -1 14.3000 123.800 4 8 336
1913195N11132 1913 29 WP MM NOT_NAMED 1913-07-16 12:00:00 NR 14.5249 123.701 main 67 67 __________P___ -1 14.5249 123.701 4 7 342
1913195N11132 1913 29 WP MM NOT_NAMED 1913-07-16 15:00:00 NR 14.8810 123.604 main 105 105 __________P___ -1 14.8810 123.604 4 8 349
1913195N11132 1913 29 WP MM NOT_NAMED 1913-07-16 18:00:00 NR 15.2599 123.548 main 139 139 __________P___ -1 15.2599 123.548 4 8 353
1913195N11132 1913 29 WP MM NOT_NAMED 1913-07-16 21:00:00 NR 15.6612 123.512 main 149 146 __________P___ -1 15.6612 123.512 4 8 357
1913195N11132 1913 29 WP MM NOT_NAMED 1913-07-16 22:00:00 NR 15.8000 123.500 main 146 139 __________O___ -1 15.8000 123.500 4 8 353
1913195N11132 1913 29 WP MM NOT_NAMED 1913-07-17 00:00:00 NR 16.0750 123.453 main 139 105 __________P___ -1 16.0750 123.453 4 9 351
1913195N11132 1913 29 WP MM NOT_NAMED 1913-07-17 03:00:00 NR 16.5063 123.389 main 105 85 __________P___ -1 16.5063 123.389 4 9 353
1913195N11132 1913 29 WP MM NOT_NAMED 1913-07-17 06:00:00 NR 16.9600 123.338 main 85 85 __________P___ -1 16.9600 123.338 4 9 355
1913195N11132 1913 29 WP MM NOT_NAMED 1913-07-17 09:00:00 NR 17.4363 123.305 main 96 98 __________P___ -1 17.4363 123.305 4 10 356
1913195N11132 1913 29 WP MM NOT_NAMED 1913-07-17 10:00:00 NR 17.6000 123.300 main 101 101 __________O___ -1 17.6000 123.300 4 10 0
1913195N11132 1913 29 WP MM NOT_NAMED 1913-07-17 12:00:00 NR 17.9197 123.282 main 114 105 __________P___ -1 17.9197 123.282 4 10 0
1913195N11132 1913 29 WP MM NOT_NAMED 1913-07-17 15:00:00 NR 18.4180 123.272 main 105 105 __________P___ -1 18.4180 123.272 4 10 0
1913195N11132 1913 29 WP MM NOT_NAMED 1913-07-17 18:00:00 NR 18.9441 123.296 main 119 124 __________P___ -1 18.9441 123.296 4 11 5
1913195N11132 1913 29 WP MM NOT_NAMED 1913-07-17 21:00:00 NR 19.5045 123.365 main 168 168 __________P___ -1 19.5045 123.365 4 12 7
1913195N11132 1913 29 WP MM NOT_NAMED 1913-07-17 22:00:00 NR 19.7000 123.400 main 185 185 __________O___ -1 19.7000 123.400 4 13 12
1913195N11132 1913 29 WP MM NOT_NAMED 1913-07-18 00:00:00 NR 20.1181 123.508 main 228 237 __________P___ -1 20.1181 123.508 4 13 15
1913195N11132 1913 29 WP MM NOT_NAMED 1913-07-18 03:00:00 NR 20.7770 123.715 main 305 305 __________P___ -1 20.7770 123.715 4 14 17
1913195N11132 1913 29 WP MM NOT_NAMED 1913-07-18 06:00:00 NR 21.4461 123.941 main 314 298 __________P___ -1 21.4461 123.941 4 14 17
1913195N11132 1913 29 WP MM NOT_NAMED 1913-07-18 09:00:00 NR 22.0941 124.144 main 298 300 __________P___ -1 22.0941 124.144 4 13 16
1913195N11132 1913 29 WP MM NOT_NAMED 1913-07-18 10:00:00 NR 22.3000 124.200 main 300 294 __________O___ -1 22.3000 124.200 4 13 13
1913195N11132 1913 29 WP MM NOT_NAMED 1913-07-18 12:00:00 NR 22.7202 124.299 main 300 287 __________P___ -1 22.7202 124.299 4 13 11
1913195N11132 1913 29 WP MM NOT_NAMED 1913-07-18 15:00:00 NR 23.3202 124.411 main 287 271 __________P___ -1 23.3202 124.411 4 11 8
1913195N11132 1913 29 WP MM NOT_NAMED 1913-07-18 18:00:00 NR 23.8531 124.461 main 271 253 __________P___ -1 23.8531 124.461 4 10 0
1913195N11132 1913 29 WP MM NOT_NAMED 1913-07-18 21:00:00 NR 24.2846 124.431 main 253 251 __________P___ -1 24.2846 124.431 4 8 354
1913195N11132 1913 29 WP MM NOT_NAMED 1913-07-18 22:00:00 NR 24.4000 124.400 main 251 236 __________O___ -1 24.4000 124.400 4 7 340
1913195N11132 1913 29 WP MM NOT_NAMED 1913-07-19 00:00:00 NR 24.5983 124.308 main 236 212 __________P___ -1 24.5983 124.308 4 6 325
1913195N11132 1913 29 WP MM NOT_NAMED 1913-07-19 03:00:00 NR 24.7954 124.093 main 212 181 __________P___ -1 24.7954 124.093 4 5 303
1913195N11132 1913 29 WP MM NOT_NAMED 1913-07-19 06:00:00 NR 24.8914 123.815 main 181 151 __________P___ -1 24.8914 123.815 4 5 282
1913195N11132 1913 29 WP MM NOT_NAMED 1913-07-19 09:00:00 NR 24.9082 123.505 main 151 141 __________P___ -1 24.9082 123.505 4 6 271
1913195N11132 1913 29 WP MM NOT_NAMED 1913-07-19 10:00:00 NR 24.9000 123.400 main 141 121 __________O___ -1 24.9000 123.400 4 5 262
1913195N11132 1913 29 WP MM NOT_NAMED 1913-07-19 12:00:00 NR 24.8716 123.211 main 121 93 __________P___ -1 24.8716 123.211 4 6 254
1913195N11132 1913 29 WP MM NOT_NAMED 1913-07-19 15:00:00 NR 24.7719 122.915 main 93 69 __________P___ -1 24.7719 122.915 4 6 247
1913195N11132 1913 29 WP MM NOT_NAMED 1913-07-19 18:00:00 NR 24.6426 122.610 main 71 40 __________P___ -1 24.6426 122.610 4 6 246
1913195N11132 1913 29 WP MM NOT_NAMED 1913-07-19 21:00:00 NR 24.5276 122.302 main 40 30 __________P___ -1 24.5276 122.302 4 6 249
1913195N11132 1913 29 WP MM NOT_NAMED 1913-07-19 22:00:00 NR 24.5000 122.200 main 30 10 __________O___ -1 24.5000 122.200 4 6 258
1913195N11132 1913 29 WP MM NOT_NAMED 1913-07-20 00:00:00 NR 24.4672 121.979 main 10 0 __________P___ -1 24.4672 121.979 4 6 264
1913195N11132 1913 29 WP MM NOT_NAMED 1913-07-20 03:00:00 NR 24.4492 121.647 main 0 0 __________P___ -1 24.4492 121.647 4 6 271
1913195N11132 1913 29 WP MM NOT_NAMED 1913-07-20 06:00:00 NR 24.4766 121.337 main 0 0 __________P___ -1 24.4766 121.337 4 5 282
1913195N11132 1913 29 WP MM NOT_NAMED 1913-07-20 09:00:00 NR 24.5588 121.073 main 0 0 __________P___ -1 24.5588 121.073 4 5 292
1913195N11132 1913 29 WP MM NOT_NAMED 1913-07-20 10:00:00 NR 24.6000 121.000 main 0 0 __________O___ -1 24.6000 121.000 4 5 310
1913195N11132 1913 29 WP MM NOT_NAMED 1913-07-20 12:00:00 NR 24.7040 120.879 main 0 0 __________P___ -1 24.7040 120.879 4 5 323
1913195N11132 1913 29 WP MM NOT_NAMED 1913-07-20 15:00:00 NR 24.9054 120.751 main 20 30 __________P___ -1 24.9054 120.751 4 5 337
1913195N11132 1913 29 WP MM NOT_NAMED 1913-07-20 18:00:00 NR 25.1464 120.670 main 32 37 __________P___ -1 25.1464 120.670 4 5 346
1913195N11132 1913 29 WP MM NOT_NAMED 1913-07-20 21:00:00 NR 25.4100 120.616 main 60 60 __________P___ -1 25.4100 120.616 4 5 349
1913195N11132 1913 29 WP MM NOT_NAMED 1913-07-20 22:00:00 NR 25.5000 120.600 main 68 __________O___ -1 25.5000 120.600 4 5 0

デジタル台風データ・検索

IBTrACS Databaseについて

本データベースは、米国NOAAが公開する1842年以降の世界の熱帯低気圧のベストトラックデータアーカイブInternational Best Track Archive for Climate Stewardship (IBTrACS)を、ウェブで閲覧しやすい形式に変換したものです。

最終更新日:2021-11-26